Terminal Aerodrome Forecast
Issued by NWS Charleston, WV

Current Version | Previous Version | Graphics & Text | Print | Product List | Glossary On
Versions: 1 2 3 4 5 6 7 8 9 10 11 12 13 14 15 16 17 18 19 20 21 22 23 24
000
FTUS41 KRLX 261139
TAFPKB
TAF
KPKB 261139Z 2612/2712 00000KT P6SM BKN050
     FM261600 34005KT P6SM BKN040
     FM262100 34005KT P6SM SCT040
     FM270200 00000KT P6SM SKC
     FM270600 00000KT P6SM BKN045=

USA.gov is the U.S. government's official web portal to all federal, state and local government web resources and services.